sensor_id;sensor_type;location;lat;lon;timestamp;temperature;humidity
60353;DHT22;46196;52.970;6.954;2022-07-21T00:01:10;21.30;99.90
60353;DHT22;46196;52.970;6.954;2022-07-21T00:03:36;21.30;99.90
60353;DHT22;46196;52.970;6.954;2022-07-21T00:06:02;21.30;99.90
60353;DHT22;46196;52.970;6.954;2022-07-21T00:08:28;21.30;99.90
60353;DHT22;46196;52.970;6.954;2022-07-21T00:10:54;21.30;99.90
60353;DHT22;46196;52.970;6.954;2022-07-21T00:13:19;21.20;99.90
60353;DHT22;46196;52.970;6.954;2022-07-21T00:15:45;21.20;99.90
60353;DHT22;46196;52.970;6.954;2022-07-21T00:18:11;21.20;99.90
60353;DHT22;46196;52.970;6.954;2022-07-21T00:20:36;21.10;99.90
60353;DHT22;46196;52.970;6.954;2022-07-21T00:23:02;21.10;99.90
60353;DHT22;46196;52.970;6.954;2022-07-21T00:25:28;21.10;99.90
60353;DHT22;46196;52.970;6.954;2022-07-21T00:27:54;21.10;99.90
60353;DHT22;46196;52.970;6.954;2022-07-21T00:30:19;21.00;99.90
60353;DHT22;46196;52.970;6.954;2022-07-21T00:32:45;21.00;99.90
60353;DHT22;46196;52.970;6.954;2022-07-21T00:35:11;20.90;99.90
60353;DHT22;46196;52.970;6.954;2022-07-21T00:37:37;20.80;99.90
60353;DHT22;46196;52.970;6.954;2022-07-21T00:40:04;20.80;99.90
60353;DHT22;46196;52.970;6.954;2022-07-21T00:42:30;20.80;99.90
60353;DHT22;46196;52.970;6.954;2022-07-21T00:44:57;20.20;99.90
60353;DHT22;46196;52.970;6.954;2022-07-21T00:47:23;20.70;99.90
60353;DHT22;46196;52.970;6.954;2022-07-21T00:49:49;20.70;99.90
60353;DHT22;46196;52.970;6.954;2022-07-21T00:52:15;20.60;99.90
60353;DHT22;46196;52.970;6.954;2022-07-21T00:54:41;20.50;99.90
60353;DHT22;46196;52.970;6.954;2022-07-21T00:57:07;20.30;99.90
60353;DHT22;46196;52.970;6.954;2022-07-21T00:59:33;20.30;99.90
60353;DHT22;46196;52.970;6.954;2022-07-21T01:01:59;20.20;99.90
60353;DHT22;46196;52.970;6.954;2022-07-21T01:04:24;20.10;99.90
60353;DHT22;46196;52.970;6.954;2022-07-21T01:06:52;20.00;99.90
60353;DHT22;46196;52.970;6.954;2022-07-21T01:09:21;20.00;99.90
60353;DHT22;46196;52.970;6.954;2022-07-21T01:11:47;20.00;99.90
60353;DHT22;46196;52.970;6.954;2022-07-21T01:14:13;20.00;99.90
60353;DHT22;46196;52.970;6.954;2022-07-21T01:16:39;20.10;99.90
60353;DHT22;46196;52.970;6.954;2022-07-21T01:19:05;20.10;99.90
60353;DHT22;46196;52.970;6.954;2022-07-21T01:21:35;20.10;99.90
60353;DHT22;46196;52.970;6.954;2022-07-21T01:24:01;20.10;99.90
60353;DHT22;46196;52.970;6.954;2022-07-21T01:26:27;20.10;99.90
60353;DHT22;46196;52.970;6.954;2022-07-21T01:28:53;20.10;99.90
60353;DHT22;46196;52.970;6.954;2022-07-21T01:31:19;20.10;99.90
60353;DHT22;46196;52.970;6.954;2022-07-21T01:33:44;20.10;99.90
60353;DHT22;46196;52.970;6.954;2022-07-21T01:36:10;20.00;99.90
60353;DHT22;46196;52.970;6.954;2022-07-21T01:38:36;20.00;99.90
60353;DHT22;46196;52.970;6.954;2022-07-21T01:41:20;20.00;99.90
60353;DHT22;46196;52.970;6.954;2022-07-21T01:43:55;20.00;99.90
60353;DHT22;46196;52.970;6.954;2022-07-21T01:46:21;20.00;99.90
60353;DHT22;46196;52.970;6.954;2022-07-21T01:48:47;20.00;99.90
60353;DHT22;46196;52.970;6.954;2022-07-21T01:51:12;19.90;99.90
60353;DHT22;46196;52.970;6.954;2022-07-21T01:53:38;20.00;99.90
60353;DHT22;46196;52.970;6.954;2022-07-21T01:56:04;19.90;99.90
60353;DHT22;46196;52.970;6.954;2022-07-21T01:58:30;19.90;99.90
60353;DHT22;46196;52.970;6.954;2022-07-21T02:00:56;19.90;99.90
60353;DHT22;46196;52.970;6.954;2022-07-21T02:03:22;19.80;99.90
60353;DHT22;46196;52.970;6.954;2022-07-21T02:05:47;19.70;99.90
60353;DHT22;46196;52.970;6.954;2022-07-21T02:08:13;19.70;99.90
60353;DHT22;46196;52.970;6.954;2022-07-21T02:10:39;19.60;99.90
60353;DHT22;46196;52.970;6.954;2022-07-21T02:13:05;19.50;99.90
60353;DHT22;46196;52.970;6.954;2022-07-21T02:15:30;19.50;99.90
60353;DHT22;46196;52.970;6.954;2022-07-21T02:17:57;19.40;99.90
60353;DHT22;46196;52.970;6.954;2022-07-21T02:20:22;19.30;99.90
60353;DHT22;46196;52.970;6.954;2022-07-21T02:22:48;19.20;99.90
60353;DHT22;46196;52.970;6.954;2022-07-21T02:25:14;19.20;99.90
60353;DHT22;46196;52.970;6.954;2022-07-21T02:27:40;19.10;99.90
60353;DHT22;46196;52.970;6.954;2022-07-21T02:30:06;19.00;99.90
60353;DHT22;46196;52.970;6.954;2022-07-21T02:32:32;19.00;99.90
60353;DHT22;46196;52.970;6.954;2022-07-21T02:34:57;18.90;99.90
60353;DHT22;46196;52.970;6.954;2022-07-21T02:37:23;18.90;99.90
60353;DHT22;46196;52.970;6.954;2022-07-21T02:39:49;18.90;99.90
60353;DHT22;46196;52.970;6.954;2022-07-21T02:42:14;18.90;99.90
60353;DHT22;46196;52.970;6.954;2022-07-21T02:44:40;18.90;99.90
60353;DHT22;46196;52.970;6.954;2022-07-21T02:47:06;18.90;99.90
60353;DHT22;46196;52.970;6.954;2022-07-21T02:49:32;19.00;99.90
60353;DHT22;46196;52.970;6.954;2022-07-21T02:51:57;18.90;99.90
60353;DHT22;46196;52.970;6.954;2022-07-21T02:54:23;18.90;99.90
60353;DHT22;46196;52.970;6.954;2022-07-21T02:56:49;19.00;99.90
60353;DHT22;46196;52.970;6.954;2022-07-21T02:59:14;19.00;99.90
60353;DHT22;46196;52.970;6.954;2022-07-21T03:01:40;19.00;99.90
60353;DHT22;46196;52.970;6.954;2022-07-21T03:04:05;19.00;99.90
60353;DHT22;46196;52.970;6.954;2022-07-21T03:06:32;19.10;99.90
60353;DHT22;46196;52.970;6.954;2022-07-21T03:08:57;19.10;99.90
60353;DHT22;46196;52.970;6.954;2022-07-21T03:11:23;19.10;99.90
60353;DHT22;46196;52.970;6.954;2022-07-21T03:13:49;19.10;99.90
60353;DHT22;46196;52.970;6.954;2022-07-21T03:16:14;19.10;99.90
60353;DHT22;46196;52.970;6.954;2022-07-21T03:18:40;19.10;99.90
60353;DHT22;46196;52.970;6.954;2022-07-21T03:21:07;19.10;99.90
60353;DHT22;46196;52.970;6.954;2022-07-21T03:23:32;19.10;99.90
60353;DHT22;46196;52.970;6.954;2022-07-21T03:25:58;19.10;99.90
60353;DHT22;46196;52.970;6.954;2022-07-21T03:28:23;19.10;99.90
60353;DHT22;46196;52.970;6.954;2022-07-21T03:30:49;19.10;99.90
60353;DHT22;46196;52.970;6.954;2022-07-21T03:33:15;19.10;99.90
60353;DHT22;46196;52.970;6.954;2022-07-21T03:35:40;19.10;99.90
60353;DHT22;46196;52.970;6.954;2022-07-21T03:38:07;19.10;99.90
60353;DHT22;46196;52.970;6.954;2022-07-21T03:40:34;19.10;99.90
60353;DHT22;46196;52.970;6.954;2022-07-21T03:43:00;19.10;99.90
60353;DHT22;46196;52.970;6.954;2022-07-21T03:45:26;19.10;99.90
60353;DHT22;46196;52.970;6.954;2022-07-21T03:47:55;19.10;99.90
60353;DHT22;46196;52.970;6.954;2022-07-21T03:50:21;19.10;99.90
60353;DHT22;46196;52.970;6.954;2022-07-21T03:52:47;19.00;99.90
60353;DHT22;46196;52.970;6.954;2022-07-21T03:55:13;19.00;99.90
60353;DHT22;46196;52.970;6.954;2022-07-21T03:57:45;19.00;99.90
60353;DHT22;46196;52.970;6.954;2022-07-21T04:00:25;19.00;99.90
60353;DHT22;46196;52.970;6.954;2022-07-21T04:02:51;19.00;99.90
60353;DHT22;46196;52.970;6.954;2022-07-21T04:05:17;18.90;99.90
60353;DHT22;46196;52.970;6.954;2022-07-21T04:07:43;18.90;99.90
60353;DHT22;46196;52.970;6.954;2022-07-21T04:10:10;19.00;99.90
60353;DHT22;46196;52.970;6.954;2022-07-21T04:12:36;18.90;99.90
60353;DHT22;46196;52.970;6.954;2022-07-21T04:15:02;18.90;99.90
60353;DHT22;46196;52.970;6.954;2022-07-21T04:17:28;18.90;99.90
60353;DHT22;46196;52.970;6.954;2022-07-21T04:19:54;18.90;99.90
60353;DHT22;46196;52.970;6.954;2022-07-21T04:22:20;18.90;99.90
60353;DHT22;46196;52.970;6.954;2022-07-21T04:24:45;18.90;99.90
60353;DHT22;46196;52.970;6.954;2022-07-21T04:27:11;18.90;99.90
60353;DHT22;46196;52.970;6.954;2022-07-21T04:29:37;18.90;99.90
60353;DHT22;46196;52.970;6.954;2022-07-21T04:32:03;18.90;99.90
60353;DHT22;46196;52.970;6.954;2022-07-21T04:34:28;18.90;99.90
60353;DHT22;46196;52.970;6.954;2022-07-21T04:36:54;18.90;99.90
60353;DHT22;46196;52.970;6.954;2022-07-21T04:39:20;18.90;99.90
60353;DHT22;46196;52.970;6.954;2022-07-21T04:41:46;18.90;99.90
60353;DHT22;46196;52.970;6.954;2022-07-21T04:44:11;18.90;99.90
60353;DHT22;46196;52.970;6.954;2022-07-21T04:46:47;18.90;99.90
60353;DHT22;46196;52.970;6.954;2022-07-21T04:49:13;18.90;99.90
60353;DHT22;46196;52.970;6.954;2022-07-21T04:51:38;18.90;99.90
60353;DHT22;46196;52.970;6.954;2022-07-21T04:54:05;18.90;99.90
60353;DHT22;46196;52.970;6.954;2022-07-21T04:56:31;18.90;99.90
60353;DHT22;46196;52.970;6.954;2022-07-21T04:58:58;18.90;99.90
60353;DHT22;46196;52.970;6.954;2022-07-21T05:01:24;18.90;99.90
60353;DHT22;46196;52.970;6.954;2022-07-21T05:03:49;18.90;99.90
60353;DHT22;46196;52.970;6.954;2022-07-21T05:06:15;19.00;99.90
60353;DHT22;46196;52.970;6.954;2022-07-21T05:08:40;19.00;99.90
60353;DHT22;46196;52.970;6.954;2022-07-21T05:11:06;19.10;99.90
60353;DHT22;46196;52.970;6.954;2022-07-21T05:13:32;19.00;99.90
60353;DHT22;46196;52.970;6.954;2022-07-21T05:15:57;19.00;99.90
60353;DHT22;46196;52.970;6.954;2022-07-21T05:18:23;19.00;99.90
60353;DHT22;46196;52.970;6.954;2022-07-21T05:20:49;19.10;99.90
60353;DHT22;46196;52.970;6.954;2022-07-21T05:23:14;19.10;99.90
60353;DHT22;46196;52.970;6.954;2022-07-21T05:25:40;19.10;99.90
60353;DHT22;46196;52.970;6.954;2022-07-21T05:28:06;19.10;99.90
60353;DHT22;46196;52.970;6.954;2022-07-21T05:30:32;19.10;99.90
60353;DHT22;46196;52.970;6.954;2022-07-21T05:32:57;19.10;99.90
60353;DHT22;46196;52.970;6.954;2022-07-21T05:35:23;19.10;99.90
60353;DHT22;46196;52.970;6.954;2022-07-21T05:37:48;19.10;99.90
60353;DHT22;46196;52.970;6.954;2022-07-21T05:40:14;19.10;99.90
60353;DHT22;46196;52.970;6.954;2022-07-21T05:42:40;19.20;99.90
60353;DHT22;46196;52.970;6.954;2022-07-21T05:45:06;19.20;99.90
60353;DHT22;46196;52.970;6.954;2022-07-21T05:47:32;19.20;99.90
60353;DHT22;46196;52.970;6.954;2022-07-21T05:49:57;19.20;99.90
60353;DHT22;46196;52.970;6.954;2022-07-21T05:52:23;19.20;99.90
60353;DHT22;46196;52.970;6.954;2022-07-21T05:54:49;19.30;99.90
60353;DHT22;46196;52.970;6.954;2022-07-21T05:57:15;19.20;99.90
60353;DHT22;46196;52.970;6.954;2022-07-21T05:59:40;19.30;99.90
60353;DHT22;46196;52.970;6.954;2022-07-21T06:02:06;19.40;99.90
60353;DHT22;46196;52.970;6.954;2022-07-21T06:04:32;19.40;99.90
60353;DHT22;46196;52.970;6.954;2022-07-21T06:06:57;19.30;99.90
60353;DHT22;46196;52.970;6.954;2022-07-21T06:09:23;19.40;99.90
60353;DHT22;46196;52.970;6.954;2022-07-21T06:11:49;19.40;99.90
60353;DHT22;46196;52.970;6.954;2022-07-21T06:14:14;19.40;99.90
60353;DHT22;46196;52.970;6.954;2022-07-21T06:16:40;19.40;99.90
60353;DHT22;46196;52.970;6.954;2022-07-21T06:19:06;19.50;99.90
60353;DHT22;46196;52.970;6.954;2022-07-21T06:21:34;19.60;99.90
60353;DHT22;46196;52.970;6.954;2022-07-21T06:24:00;19.60;99.90
60353;DHT22;46196;52.970;6.954;2022-07-21T06:26:25;19.60;99.90
60353;DHT22;46196;52.970;6.954;2022-07-21T06:28:51;19.60;99.90
60353;DHT22;46196;52.970;6.954;2022-07-21T06:31:17;19.70;99.90
60353;DHT22;46196;52.970;6.954;2022-07-21T06:33:43;19.70;99.90
60353;DHT22;46196;52.970;6.954;2022-07-21T06:36:08;19.60;99.90
60353;DHT22;46196;52.970;6.954;2022-07-21T06:38:34;19.60;99.90
60353;DHT22;46196;52.970;6.954;2022-07-21T06:41:00;19.60;99.90
60353;DHT22;46196;52.970;6.954;2022-07-21T06:43:25;19.60;99.90
60353;DHT22;46196;52.970;6.954;2022-07-21T06:45:51;19.60;99.90
60353;DHT22;46196;52.970;6.954;2022-07-21T06:48:17;19.60;99.90
60353;DHT22;46196;52.970;6.954;2022-07-21T06:50:42;19.50;99.90
60353;DHT22;46196;52.970;6.954;2022-07-21T06:53:08;19.50;99.90
60353;DHT22;46196;52.970;6.954;2022-07-21T06:55:34;19.50;99.90
60353;DHT22;46196;52.970;6.954;2022-07-21T06:58:12;19.50;99.90
60353;DHT22;46196;52.970;6.954;2022-07-21T07:00:38;19.60;99.90
60353;DHT22;46196;52.970;6.954;2022-07-21T07:03:04;19.60;99.90
60353;DHT22;46196;52.970;6.954;2022-07-21T07:05:30;19.50;99.90
60353;DHT22;46196;52.970;6.954;2022-07-21T07:07:56;19.50;99.90
60353;DHT22;46196;52.970;6.954;2022-07-21T07:10:22;19.50;99.90
60353;DHT22;46196;52.970;6.954;2022-07-21T07:12:47;19.50;99.90
60353;DHT22;46196;52.970;6.954;2022-07-21T07:15:13;19.40;99.90
60353;DHT22;46196;52.970;6.954;2022-07-21T07:17:39;19.50;99.90
60353;DHT22;46196;52.970;6.954;2022-07-21T07:20:04;19.50;99.90
60353;DHT22;46196;52.970;6.954;2022-07-21T07:22:32;19.50;99.90
60353;DHT22;46196;52.970;6.954;2022-07-21T07:24:57;19.60;99.90
60353;DHT22;46196;52.970;6.954;2022-07-21T07:27:23;19.60;99.90
60353;DHT22;46196;52.970;6.954;2022-07-21T07:29:49;19.60;99.90
60353;DHT22;46196;52.970;6.954;2022-07-21T07:32:14;19.60;99.90
60353;DHT22;46196;52.970;6.954;2022-07-21T07:34:40;19.70;99.90
60353;DHT22;46196;52.970;6.954;2022-07-21T07:37:06;19.80;99.90
60353;DHT22;46196;52.970;6.954;2022-07-21T07:39:32;19.80;99.90
60353;DHT22;46196;52.970;6.954;2022-07-21T07:41:57;19.90;99.90
60353;DHT22;46196;52.970;6.954;2022-07-21T07:44:23;19.90;99.90
60353;DHT22;46196;52.970;6.954;2022-07-21T07:46:49;20.00;99.90
60353;DHT22;46196;52.970;6.954;2022-07-21T07:49:14;20.00;99.90
60353;DHT22;46196;52.970;6.954;2022-07-21T07:51:40;20.00;99.90
60353;DHT22;46196;52.970;6.954;2022-07-21T07:54:06;20.10;99.90
60353;DHT22;46196;52.970;6.954;2022-07-21T07:56:31;20.00;99.90
60353;DHT22;46196;52.970;6.954;2022-07-21T07:58:57;20.10;99.90
60353;DHT22;46196;52.970;6.954;2022-07-21T08:01:23;20.20;99.90
60353;DHT22;46196;52.970;6.954;2022-07-21T08:03:48;20.60;99.90
60353;DHT22;46196;52.970;6.954;2022-07-21T08:06:14;21.10;99.90
60353;DHT22;46196;52.970;6.954;2022-07-21T08:08:40;21.80;99.90
60353;DHT22;46196;52.970;6.954;2022-07-21T08:11:05;22.10;99.90
60353;DHT22;46196;52.970;6.954;2022-07-21T08:13:31;22.20;99.90
60353;DHT22;46196;52.970;6.954;2022-07-21T08:15:57;22.10;99.90
60353;DHT22;46196;52.970;6.954;2022-07-21T08:18:22;22.20;99.90
60353;DHT22;46196;52.970;6.954;2022-07-21T08:20:48;22.70;99.90
60353;DHT22;46196;52.970;6.954;2022-07-21T08:23:14;23.30;99.90
60353;DHT22;46196;52.970;6.954;2022-07-21T08:25:40;24.00;99.90
60353;DHT22;46196;52.970;6.954;2022-07-21T08:28:06;24.40;99.90
60353;DHT22;46196;52.970;6.954;2022-07-21T08:30:32;24.40;99.90
60353;DHT22;46196;52.970;6.954;2022-07-21T08:32:58;24.10;99.90
60353;DHT22;46196;52.970;6.954;2022-07-21T08:35:24;23.80;99.90
60353;DHT22;46196;52.970;6.954;2022-07-21T08:37:56;23.30;99.90
60353;DHT22;46196;52.970;6.954;2022-07-21T08:40:23;22.90;99.90
60353;DHT22;46196;52.970;6.954;2022-07-21T08:42:50;22.80;99.90
60353;DHT22;46196;52.970;6.954;2022-07-21T08:45:16;22.60;99.90
60353;DHT22;46196;52.970;6.954;2022-07-21T08:47:41;22.60;99.90
60353;DHT22;46196;52.970;6.954;2022-07-21T08:50:07;22.60;99.90
60353;DHT22;46196;52.970;6.954;2022-07-21T08:52:33;22.80;99.90
60353;DHT22;46196;52.970;6.954;2022-07-21T08:54:59;22.90;99.90
60353;DHT22;46196;52.970;6.954;2022-07-21T08:57:25;23.10;99.90
60353;DHT22;46196;52.970;6.954;2022-07-21T08:59:51;23.30;99.90
60353;DHT22;46196;52.970;6.954;2022-07-21T09:02:25;23.40;99.90
60353;DHT22;46196;52.970;6.954;2022-07-21T09:04:51;23.60;99.90
60353;DHT22;46196;52.970;6.954;2022-07-21T09:07:18;23.80;99.90
60353;DHT22;46196;52.970;6.954;2022-07-21T09:09:53;23.80;99.90
60353;DHT22;46196;52.970;6.954;2022-07-21T09:12:19;23.60;99.90
60353;DHT22;46196;52.970;6.954;2022-07-21T09:14:44;23.60;99.90
60353;DHT22;46196;52.970;6.954;2022-07-21T09:17:10;23.70;99.90
60353;DHT22;46196;52.970;6.954;2022-07-21T09:19:37;23.80;99.90
60353;DHT22;46196;52.970;6.954;2022-07-21T09:22:11;24.00;99.90
60353;DHT22;46196;52.970;6.954;2022-07-21T09:24:38;24.20;99.90
60353;DHT22;46196;52.970;6.954;2022-07-21T09:27:06;24.20;99.90
60353;DHT22;46196;52.970;6.954;2022-07-21T09:34:50;23.80;99.90
60353;DHT22;46196;52.970;6.954;2022-07-21T09:37:16;23.70;99.90
60353;DHT22;46196;52.970;6.954;2022-07-21T09:39:51;23.70;99.90
60353;DHT22;46196;52.970;6.954;2022-07-21T09:44:57;23.50;99.90
60353;DHT22;46196;52.970;6.954;2022-07-21T09:47:24;23.30;99.90
60353;DHT22;46196;52.970;6.954;2022-07-21T09:49:50;23.10;99.90
60353;DHT22;46196;52.970;6.954;2022-07-21T09:52:23;23.00;99.90
60353;DHT22;46196;52.970;6.954;2022-07-21T09:54:49;23.00;99.90
60353;DHT22;46196;52.970;6.954;2022-07-21T09:57:15;23.10;99.90
60353;DHT22;46196;52.970;6.954;2022-07-21T09:59:45;23.20;99.90
60353;DHT22;46196;52.970;6.954;2022-07-21T10:02:16;23.20;99.90
60353;DHT22;46196;52.970;6.954;2022-07-21T10:04:43;23.10;99.90
60353;DHT22;46196;52.970;6.954;2022-07-21T10:07:10;23.00;99.90
60353;DHT22;46196;52.970;6.954;2022-07-21T10:09:36;22.90;99.90
60353;DHT22;46196;52.970;6.954;2022-07-21T10:12:02;22.80;99.90
60353;DHT22;46196;52.970;6.954;2022-07-21T10:14:28;22.70;99.90
60353;DHT22;46196;52.970;6.954;2022-07-21T10:16:54;22.60;99.90
60353;DHT22;46196;52.970;6.954;2022-07-21T10:19:26;22.60;99.90
60353;DHT22;46196;52.970;6.954;2022-07-21T10:24:26;22.60;99.90
60353;DHT22;46196;52.970;6.954;2022-07-21T10:27:03;22.50;99.90
60353;DHT22;46196;52.970;6.954;2022-07-21T10:32:19;22.60;99.90
60353;DHT22;46196;52.970;6.954;2022-07-21T10:34:45;22.70;99.90
60353;DHT22;46196;52.970;6.954;2022-07-21T10:37:42;22.70;99.90
60353;DHT22;46196;52.970;6.954;2022-07-21T10:39:57;22.70;99.90
60353;DHT22;46196;52.970;6.954;2022-07-21T10:42:23;22.70;99.90
60353;DHT22;46196;52.970;6.954;2022-07-21T10:44:48;22.80;99.90
60353;DHT22;46196;52.970;6.954;2022-07-21T10:57:45;23.30;99.90
60353;DHT22;46196;52.970;6.954;2022-07-21T11:00:24;23.20;99.90
60353;DHT22;46196;52.970;6.954;2022-07-21T11:02:51;23.00;99.90
60353;DHT22;46196;52.970;6.954;2022-07-21T11:05:17;22.80;99.90
60353;DHT22;46196;52.970;6.954;2022-07-21T11:10:27;22.50;99.90
60353;DHT22;46196;52.970;6.954;2022-07-21T11:12:56;22.50;99.90
60353;DHT22;46196;52.970;6.954;2022-07-21T11:18:07;22.60;99.90
60353;DHT22;46196;52.970;6.954;2022-07-21T11:20:33;22.70;99.90
60353;DHT22;46196;52.970;6.954;2022-07-21T11:22:59;22.90;99.90
60353;DHT22;46196;52.970;6.954;2022-07-21T11:25:29;23.10;99.90
60353;DHT22;46196;52.970;6.954;2022-07-21T11:27:54;23.20;99.90
60353;DHT22;46196;52.970;6.954;2022-07-21T11:30:20;23.40;99.90
60353;DHT22;46196;52.970;6.954;2022-07-21T11:32:46;23.60;99.90
60353;DHT22;46196;52.970;6.954;2022-07-21T11:35:12;23.60;99.90
60353;DHT22;46196;52.970;6.954;2022-07-21T11:37:39;23.70;99.90
60353;DHT22;46196;52.970;6.954;2022-07-21T11:42:34;23.70;99.90
60353;DHT22;46196;52.970;6.954;2022-07-21T11:45:01;23.80;99.90
60353;DHT22;46196;52.970;6.954;2022-07-21T11:47:27;23.80;99.90
60353;DHT22;46196;52.970;6.954;2022-07-21T11:49:53;23.80;99.90
60353;DHT22;46196;52.970;6.954;2022-07-21T11:52:23;23.80;99.90
60353;DHT22;46196;52.970;6.954;2022-07-21T11:54:50;23.70;99.90
60353;DHT22;46196;52.970;6.954;2022-07-21T11:57:19;23.60;99.90
60353;DHT22;46196;52.970;6.954;2022-07-21T11:59:45;23.60;99.90
60353;DHT22;46196;52.970;6.954;2022-07-21T12:02:18;23.50;99.90
60353;DHT22;46196;52.970;6.954;2022-07-21T12:04:48;23.50;99.90
60353;DHT22;46196;52.970;6.954;2022-07-21T12:09:47;23.50;99.90
60353;DHT22;46196;52.970;6.954;2022-07-21T12:12:13;23.10;99.90
60353;DHT22;46196;52.970;6.954;2022-07-21T12:17:05;24.00;99.90
60353;DHT22;46196;52.970;6.954;2022-07-21T12:19:30;24.00;99.90
60353;DHT22;46196;52.970;6.954;2022-07-21T12:21:56;23.90;99.90
60353;DHT22;46196;52.970;6.954;2022-07-21T12:24:22;23.90;99.90
60353;DHT22;46196;52.970;6.954;2022-07-21T12:26:48;23.50;99.90
60353;DHT22;46196;52.970;6.954;2022-07-21T12:29:26;23.30;99.90
60353;DHT22;46196;52.970;6.954;2022-07-21T12:31:52;22.80;99.90
60353;DHT22;46196;52.970;6.954;2022-07-21T12:34:18;22.50;99.90
60353;DHT22;46196;52.970;6.954;2022-07-21T12:36:44;22.20;99.90
60353;DHT22;46196;52.970;6.954;2022-07-21T12:39:15;22.10;99.90
60353;DHT22;46196;52.970;6.954;2022-07-21T12:42:00;22.00;99.90
60353;DHT22;46196;52.970;6.954;2022-07-21T12:44:27;22.10;99.90
60353;DHT22;46196;52.970;6.954;2022-07-21T12:46:53;22.00;99.90
60353;DHT22;46196;52.970;6.954;2022-07-21T12:49:18;22.00;99.90
60353;DHT22;46196;52.970;6.954;2022-07-21T12:51:54;22.00;99.90
60353;DHT22;46196;52.970;6.954;2022-07-21T12:54:20;22.10;99.90
60353;DHT22;46196;52.970;6.954;2022-07-21T12:56:45;22.00;99.90
60353;DHT22;46196;52.970;6.954;2022-07-21T12:59:11;22.10;99.90
60353;DHT22;46196;52.970;6.954;2022-07-21T13:01:39;22.10;99.90
60353;DHT22;46196;52.970;6.954;2022-07-21T13:04:05;22.20;99.90
60353;DHT22;46196;52.970;6.954;2022-07-21T13:06:31;22.20;99.90
60353;DHT22;46196;52.970;6.954;2022-07-21T13:08:57;22.30;99.90
60353;DHT22;46196;52.970;6.954;2022-07-21T13:11:22;22.30;99.90
60353;DHT22;46196;52.970;6.954;2022-07-21T13:13:49;22.50;99.90
60353;DHT22;46196;52.970;6.954;2022-07-21T13:16:16;22.60;99.90
60353;DHT22;46196;52.970;6.954;2022-07-21T13:18:42;22.80;99.90
60353;DHT22;46196;52.970;6.954;2022-07-21T13:21:07;23.00;99.90
60353;DHT22;46196;52.970;6.954;2022-07-21T13:23:33;23.10;99.90
60353;DHT22;46196;52.970;6.954;2022-07-21T13:25:59;23.20;99.90
60353;DHT22;46196;52.970;6.954;2022-07-21T13:28:25;23.50;99.90
60353;DHT22;46196;52.970;6.954;2022-07-21T13:30:50;23.60;99.90
60353;DHT22;46196;52.970;6.954;2022-07-21T13:33:16;23.70;99.90
60353;DHT22;46196;52.970;6.954;2022-07-21T13:35:42;23.70;99.90
60353;DHT22;46196;52.970;6.954;2022-07-21T13:38:08;23.70;99.90
60353;DHT22;46196;52.970;6.954;2022-07-21T13:40:34;23.70;99.90
60353;DHT22;46196;52.970;6.954;2022-07-21T13:42:59;23.60;99.90
60353;DHT22;46196;52.970;6.954;2022-07-21T13:45:25;23.50;99.90
60353;DHT22;46196;52.970;6.954;2022-07-21T13:47:50;23.40;99.90
60353;DHT22;46196;52.970;6.954;2022-07-21T13:50:16;23.50;99.90
60353;DHT22;46196;52.970;6.954;2022-07-21T13:52:42;23.60;99.90
60353;DHT22;46196;52.970;6.954;2022-07-21T13:55:08;23.70;99.90
60353;DHT22;46196;52.970;6.954;2022-07-21T13:57:34;23.80;99.90
60353;DHT22;46196;52.970;6.954;2022-07-21T14:00:00;23.80;99.90
60353;DHT22;46196;52.970;6.954;2022-07-21T14:02:26;23.70;99.90
60353;DHT22;46196;52.970;6.954;2022-07-21T14:04:51;23.50;99.90
60353;DHT22;46196;52.970;6.954;2022-07-21T14:07:17;23.50;99.90
60353;DHT22;46196;52.970;6.954;2022-07-21T14:09:42;23.20;99.90
60353;DHT22;46196;52.970;6.954;2022-07-21T14:12:09;23.10;99.90
60353;DHT22;46196;52.970;6.954;2022-07-21T14:14:35;22.90;99.90
60353;DHT22;46196;52.970;6.954;2022-07-21T14:17:01;23.00;99.90
60353;DHT22;46196;52.970;6.954;2022-07-21T14:19:27;23.20;99.90
60353;DHT22;46196;52.970;6.954;2022-07-21T14:21:52;23.40;99.90
60353;DHT22;46196;52.970;6.954;2022-07-21T14:24:18;23.50;99.90
60353;DHT22;46196;52.970;6.954;2022-07-21T14:27:02;23.60;99.90
60353;DHT22;46196;52.970;6.954;2022-07-21T14:29:28;23.60;99.90
60353;DHT22;46196;52.970;6.954;2022-07-21T14:31:53;23.50;99.90
60353;DHT22;46196;52.970;6.954;2022-07-21T14:34:19;23.50;99.90
60353;DHT22;46196;52.970;6.954;2022-07-21T14:36:45;23.70;99.90
60353;DHT22;46196;52.970;6.954;2022-07-21T14:39:12;23.90;99.90
60353;DHT22;46196;52.970;6.954;2022-07-21T14:41:38;24.00;99.90
60353;DHT22;46196;52.970;6.954;2022-07-21T14:44:04;23.90;99.90
60353;DHT22;46196;52.970;6.954;2022-07-21T14:46:30;23.80;99.90
60353;DHT22;46196;52.970;6.954;2022-07-21T14:48:55;23.60;99.90
60353;DHT22;46196;52.970;6.954;2022-07-21T14:51:22;23.50;99.90
60353;DHT22;46196;52.970;6.954;2022-07-21T14:53:47;23.40;99.90
60353;DHT22;46196;52.970;6.954;2022-07-21T14:56:13;23.50;99.90
60353;DHT22;46196;52.970;6.954;2022-07-21T14:58:39;23.70;99.90
60353;DHT22;46196;52.970;6.954;2022-07-21T15:01:04;23.80;99.90
60353;DHT22;46196;52.970;6.954;2022-07-21T15:03:30;23.90;99.90
60353;DHT22;46196;52.970;6.954;2022-07-21T15:05:55;24.00;99.90
60353;DHT22;46196;52.970;6.954;2022-07-21T15:08:21;23.90;99.90
60353;DHT22;46196;52.970;6.954;2022-07-21T15:10:47;23.80;99.90
60353;DHT22;46196;52.970;6.954;2022-07-21T15:13:14;23.60;99.90
60353;DHT22;46196;52.970;6.954;2022-07-21T15:15:40;23.60;99.90
60353;DHT22;46196;52.970;6.954;2022-07-21T15:18:06;23.60;99.90
60353;DHT22;46196;52.970;6.954;2022-07-21T15:20:32;23.80;99.90
60353;DHT22;46196;52.970;6.954;2022-07-21T15:22:57;24.00;99.90
60353;DHT22;46196;52.970;6.954;2022-07-21T15:25:23;24.10;99.90
60353;DHT22;46196;52.970;6.954;2022-07-21T15:27:49;24.10;99.90
60353;DHT22;46196;52.970;6.954;2022-07-21T15:30:15;24.00;99.90
60353;DHT22;46196;52.970;6.954;2022-07-21T15:32:42;24.10;99.90
60353;DHT22;46196;52.970;6.954;2022-07-21T15:35:08;24.20;99.90
60353;DHT22;46196;52.970;6.954;2022-07-21T15:37:34;24.10;99.90
60353;DHT22;46196;52.970;6.954;2022-07-21T15:39:59;24.00;99.90
60353;DHT22;46196;52.970;6.954;2022-07-21T15:42:25;23.80;99.90
60353;DHT22;46196;52.970;6.954;2022-07-21T15:44:53;23.70;99.90
60353;DHT22;46196;52.970;6.954;2022-07-21T15:47:19;23.50;99.90
60353;DHT22;46196;52.970;6.954;2022-07-21T15:49:45;23.50;99.90
60353;DHT22;46196;52.970;6.954;2022-07-21T15:52:13;23.50;99.90
60353;DHT22;46196;52.970;6.954;2022-07-21T15:54:39;23.60;99.90
60353;DHT22;46196;52.970;6.954;2022-07-21T15:57:06;23.50;99.90
60353;DHT22;46196;52.970;6.954;2022-07-21T15:59:31;22.90;99.90
60353;DHT22;46196;52.970;6.954;2022-07-21T16:02:01;23.50;99.90